Time;durP1;ratioP1;P1;durP2;ratioP2;P2;SDS_P1;SDS_P2;PMS_P1;PMS_P2;Temp;Humidity;BMP_temperature;BMP_pressure;BME280_temperature;BME280_humidity;BME280_pressure;Samples;Min_cycle;Max_cycle;Signal;HPM_P1;HPM_P2
2023/11/10 00:01:40;;;;;;;;;;;;;;;;;;2191118;59;2869;-26
2023/11/10 00:04:11;;;;;;;;;;;;;;;;;;2194799;59;2456;-26
2023/11/10 00:06:43;;;;;;;;;;;;;;;;;;2191289;59;2378;-26
2023/11/10 00:09:18;;;;;;;;;;;;;;;;;;2193550;59;1999;-26
2023/11/10 00:11:49;;;;;;;;;;;;;;;;;;2191701;67;1948;-26
2023/11/10 00:14:19;;;;;;;;;;;;;;;;;;2192554;59;1297;-26
2023/11/10 00:16:49;;;;;;;;;;;;;;;;;;2188407;59;2170;-26
2023/11/10 00:19:19;;;;;;;;;;;;;;;;;;2195081;59;1264;-26
2023/11/10 00:21:50;;;;;;;;;;;;;;;;;;2191724;59;1964;-26
2023/11/10 00:24:23;;;;;;;;;;;;;;;;;;2193385;59;2602;-26
2023/11/10 00:26:53;;;;;;;;;;;;;;;;;;2191040;59;1988;-26
2023/11/10 00:29:23;;;;;;;;;;;;;;;;;;2192806;59;2547;-26
2023/11/10 00:31:54;;;;;;;;;;;;;;;;;;2191876;59;2110;-27
2023/11/10 00:34:24;;;;;;;;;;;;;;;;;;2193208;59;1188;-26
2023/11/10 00:36:54;;;;;;;;;;;;;;;;;;2193048;59;1519;-26
2023/11/10 00:39:25;;;;;;;;;;;;;;;;;;2192446;59;1407;-26
2023/11/10 00:41:55;;;;;;;;;;;;;;;;;;2192117;59;1564;-26
2023/11/10 00:44:27;;;;;;;;;;;;;;;;;;2193245;59;1831;-26
2023/11/10 00:46:59;;;;;;;;;;;;;;;;;;2192441;67;1923;-26
2023/11/10 00:49:29;;;;;;;;;;;;;;;;;;2192523;59;1869;-26
2023/11/10 00:51:59;;;;;;;;;;;;;;;;;;2192486;59;1209;-26
2023/11/10 00:54:29;;;;;;;;;;;;;;;;;;2192177;67;1840;-26
2023/11/10 00:57:00;;;;;;;;;;;;;;;;;;2193236;67;1550;-26
2023/11/10 00:59:30;;;;;;;;;;;;;;;;;;2194462;59;2285;-35
2023/11/10 01:02:00;;;;;;;;;;;;;;;;;;2192922;59;2481;-26
2023/11/10 01:04:31;;;;;;;;;;;;;;;;;;2194260;67;1573;-26
2023/11/10 01:07:01;;;;;;;;;;;;;;;;;;2193076;59;2170;-26
2023/11/10 01:09:31;;;;;;;;;;;;;;;;;;2193526;59;1610;-26
2023/11/10 01:12:02;;;;;;;;;;;;;;;;;;2192289;59;1920;-27
2023/11/10 01:14:32;;;;;;;;;;;;;;;;;;2192541;59;1779;-26
2023/11/10 01:17:02;;;;;;;;;;;;;;;;;;2194076;59;1587;-26
2023/11/10 01:19:32;;;;;;;;;;;;;;;;;;2192689;67;2003;-26
2023/11/10 01:22:03;;;;;;;;;;;;;;;;;;2193403;67;1740;-26
2023/11/10 01:24:34;;;;;;;;;;;;;;;;;;2192430;67;1572;-26
2023/11/10 01:27:04;;;;;;;;;;;;;;;;;;2194675;59;1941;-26
2023/11/10 01:29:34;;;;;;;;;;;;;;;;;;2191856;59;2267;-26
2023/11/10 01:32:05;;;;;;;;;;;;;;;;;;2193134;59;1614;-26
2023/11/10 01:34:35;;;;;;;;;;;;;;;;;;2191892;67;1901;-25
2023/11/10 01:37:06;;;;;;;;;;;;;;;;;;2192963;67;1322;-26
2023/11/10 01:39:36;;;;;;;;;;;;;;;;;;2192059;59;2018;-26
2023/11/10 01:42:08;;;;;;;;;;;;;;;;;;2192833;59;2040;-26
2023/11/10 01:44:38;;;;;;;;;;;;;;;;;;2192213;59;1899;-26
2023/11/10 01:47:09;;;;;;;;;;;;;;;;;;2193898;62;1901;-26
2023/11/10 01:49:40;;;;;;;;;;;;;;;;;;2194936;67;1753;-27
2023/11/10 01:52:12;;;;;;;;;;;;;;;;;;2192818;59;1540;-26
2023/11/10 01:54:42;;;;;;;;;;;;;;;;;;2191469;67;1425;-25
2023/11/10 01:57:13;;;;;;;;;;;;;;;;;;2195717;67;2037;-26
2023/11/10 01:59:45;;;;;;;;;;;;;;;;;;2191297;59;1868;-26
2023/11/10 02:02:15;;;;;;;;;;;;;;;;;;2192878;59;2504;-26
2023/11/10 02:04:45;;;;;;;;;;;;;;;;;;2191213;59;1683;-26
2023/11/10 02:07:16;;;;;;;;;;;;;;;;;;2193889;59;1906;-26
2023/11/10 02:09:46;;;;;;;;;;;;;;;;;;2192109;59;1663;-26
2023/11/10 02:12:17;;;;;;;;;;;;;;;;;;2190137;59;2401;-26
2023/11/10 02:14:47;;;;;;;;;;;;;;;;;;2190907;59;1904;-26
2023/11/10 02:17:17;;;;;;;;;;;;;;;;;;2197335;59;1529;-26
2023/11/10 02:19:48;;;;;;;;;;;;;;;;;;2194843;59;1672;-26
2023/11/10 02:22:18;;;;;;;;;;;;;;;;;;2193516;67;1219;-26
2023/11/10 02:24:49;;;;;;;;;;;;;;;;;;2191772;67;1944;-26
2023/11/10 02:27:19;;;;;;;;;;;;;;;;;;2195701;59;1942;-26
2023/11/10 02:29:49;;;;;;;;;;;;;;;;;;2191849;59;2274;-26
2023/11/10 02:32:20;;;;;;;;;;;;;;;;;;2193247;59;1499;-26
2023/11/10 02:34:51;;;;;;;;;;;;;;;;;;2191855;59;1900;-26
2023/11/10 02:37:21;;;;;;;;;;;;;;;;;;2192407;59;1373;-26
2023/11/10 02:39:51;;;;;;;;;;;;;;;;;;2192163;59;1976;-26
2023/11/10 02:42:22;;;;;;;;;;;;;;;;;;2192633;59;1656;-26
2023/11/10 02:44:52;;;;;;;;;;;;;;;;;;2191542;59;1700;-26
2023/11/10 02:47:22;;;;;;;;;;;;;;;;;;2191826;59;2000;-26
2023/11/10 02:49:53;;;;;;;;;;;;;;;;;;2192175;67;1364;-26
2023/11/10 02:52:23;;;;;;;;;;;;;;;;;;2192982;67;1573;-26
2023/11/10 02:54:53;;;;;;;;;;;;;;;;;;2191938;67;1616;-26
2023/11/10 02:57:24;;;;;;;;;;;;;;;;;;2193346;62;1481;-26
2023/11/10 02:59:54;;;;;;;;;;;;;;;;;;2194464;67;1542;-26
2023/11/10 03:02:25;;;;;;;;;;;;;;;;;;2195342;59;2351;-26
2023/11/10 03:04:55;;;;;;;;;;;;;;;;;;2191227;67;1866;-26
2023/11/10 03:07:26;;;;;;;;;;;;;;;;;;2194940;67;1975;-26
2023/11/10 03:09:58;;;;;;;;;;;;;;;;;;2192071;67;1801;-26
2023/11/10 03:12:31;;;;;;;;;;;;;;;;;;2192279;67;1241;-26
2023/11/10 03:15:01;;;;;;;;;;;;;;;;;;2191507;59;2096;-26
2023/11/10 03:17:31;;;;;;;;;;;;;;;;;;2193699;67;1690;-26
2023/11/10 03:20:02;;;;;;;;;;;;;;;;;;2191254;67;1933;-23
2023/11/10 03:22:33;;;;;;;;;;;;;;;;;;2192145;67;1365;-26
2023/11/10 03:25:03;;;;;;;;;;;;;;;;;;2191183;67;1452;-26
2023/11/10 03:27:33;;;;;;;;;;;;;;;;;;2194631;59;1924;-26
2023/11/10 03:30:04;;;;;;;;;;;;;;;;;;2190826;59;2598;-25
2023/11/10 03:32:34;;;;;;;;;;;;;;;;;;2192844;59;1231;-24
2023/11/10 03:35:05;;;;;;;;;;;;;;;;;;2187497;67;1612;-27
2023/11/10 03:37:36;;;;;;;;;;;;;;;;;;2192085;59;1892;-23
2023/11/10 03:40:06;;;;;;;;;;;;;;;;;;2191606;59;1983;-23
2023/11/10 03:42:37;;;;;;;;;;;;;;;;;;2192354;67;1502;-23
2023/11/10 03:45:08;;;;;;;;;;;;;;;;;;2193850;67;1932;-23
2023/11/10 03:47:38;;;;;;;;;;;;;;;;;;2191873;59;1983;-26
2023/11/10 03:50:09;;;;;;;;;;;;;;;;;;2192549;67;1927;-26
2023/11/10 03:52:39;;;;;;;;;;;;;;;;;;2193103;67;1960;-26
2023/11/10 03:55:10;;;;;;;;;;;;;;;;;;2190804;59;1376;-26
2023/11/10 03:57:40;;;;;;;;;;;;;;;;;;2192689;67;1693;-23
2023/11/10 04:00:12;;;;;;;;;;;;;;;;;;2193676;67;1214;-23
2023/11/10 04:02:44;;;;;;;;;;;;;;;;;;2191359;59;2393;-23
2023/11/10 04:05:15;;;;;;;;;;;;;;;;;;2191799;67;1716;-23
2023/11/10 04:07:45;;;;;;;;;;;;;;;;;;2192036;67;1930;-23
2023/11/10 04:10:20;;;;;;;;;;;;;;;;;;2192935;59;1506;-26
2023/11/10 04:12:50;;;;;;;;;;;;;;;;;;2191387;64;1801;-25
2023/11/10 04:15:21;;;;;;;;;;;;;;;;;;2192024;59;1889;-25
2023/11/10 04:17:51;;;;;;;;;;;;;;;;;;2191539;67;1572;-25
2023/11/10 04:20:22;;;;;;;;;;;;;;;;;;2192356;67;1267;-26
2023/11/10 04:22:53;;;;;;;;;;;;;;;;;;2191904;67;1703;-25
2023/11/10 04:25:23;;;;;;;;;;;;;;;;;;2192856;67;1300;-25
2023/11/10 04:27:54;;;;;;;;;;;;;;;;;;2193877;59;2174;-25
2023/11/10 04:30:24;;;;;;;;;;;;;;;;;;2192648;59;2392;-25
2023/11/10 04:32:55;;;;;;;;;;;;;;;;;;2190998;59;1765;-25
2023/11/10 04:35:25;;;;;;;;;;;;;;;;;;2194124;59;1523;-25
2023/11/10 04:37:58;;;;;;;;;;;;;;;;;;2192418;59;1799;-26
2023/11/10 04:40:28;;;;;;;;;;;;;;;;;;2192832;59;1929;-26
2023/11/10 04:42:58;;;;;;;;;;;;;;;;;;2191373;59;1638;-26
2023/11/10 04:45:29;;;;;;;;;;;;;;;;;;2193113;59;1592;-25
2023/11/10 04:47:59;;;;;;;;;;;;;;;;;;2192628;59;1925;-25
2023/11/10 04:50:29;;;;;;;;;;;;;;;;;;2191540;67;1277;-26
2023/11/10 04:53:00;;;;;;;;;;;;;;;;;;2190892;67;1591;-25
2023/11/10 04:55:30;;;;;;;;;;;;;;;;;;2193182;59;1936;-26
2023/11/10 04:58:00;;;;;;;;;;;;;;;;;;2192235;59;2096;-26
2023/11/10 05:00:31;;;;;;;;;;;;;;;;;;2193008;59;1745;-26
2023/11/10 05:03:06;;;;;;;;;;;;;;;;;;2192806;59;2286;-26
2023/11/10 05:05:36;;;;;;;;;;;;;;;;;;2193477;60;1897;-25
2023/11/10 05:08:06;;;;;;;;;;;;;;;;;;2193057;67;1995;-25
2023/11/10 05:10:36;;;;;;;;;;;;;;;;;;2191301;67;1539;-25
2023/11/10 05:13:07;;;;;;;;;;;;;;;;;;2190003;59;2294;-25
2023/11/10 05:15:38;;;;;;;;;;;;;;;;;;2191300;59;1765;-25
2023/11/10 05:18:11;;;;;;;;;;;;;;;;;;2194092;67;1662;-25
2023/11/10 05:20:41;;;;;;;;;;;;;;;;;;2191659;59;1702;-26
2023/11/10 05:23:13;;;;;;;;;;;;;;;;;;2191505;59;1426;-25
2023/11/10 05:25:43;;;;;;;;;;;;;;;;;;2192689;67;1633;-26
2023/11/10 05:28:13;;;;;;;;;;;;;;;;;;2191175;59;2120;-25
2023/11/10 05:30:44;;;;;;;;;;;;;;;;;;2191880;59;2529;-25
2023/11/10 05:33:14;;;;;;;;;;;;;;;;;;2191431;59;1461;-25
2023/11/10 05:35:44;;;;;;;;;;;;;;;;;;2193242;59;1881;-26
2023/11/10 05:38:15;;;;;;;;;;;;;;;;;;2190388;59;1978;-26
2023/11/10 05:40:46;;;;;;;;;;;;;;;;;;2192360;59;1700;-26
2023/11/10 05:43:16;;;;;;;;;;;;;;;;;;2192274;67;1726;-26
2023/11/10 05:45:46;;;;;;;;;;;;;;;;;;2192579;59;1952;-26
2023/11/10 05:48:16;;;;;;;;;;;;;;;;;;2190560;59;2000;-26
2023/11/10 05:50:49;;;;;;;;;;;;;;;;;;2192715;59;1491;-26
2023/11/10 05:53:20;;;;;;;;;;;;;;;;;;2191995;67;1332;-26
2023/11/10 05:55:51;;;;;;;;;;;;;;;;;;2190271;59;1878;-27
2023/11/10 05:58:21;;;;;;;;;;;;;;;;;;2191514;67;1714;-27
2023/11/10 06:00:51;;;;;;;;;;;;;;;;;;2191011;67;1907;-27
2023/11/10 06:03:21;;;;;;;;;;;;;;;;;;2188977;59;2306;-27
2023/11/10 06:05:52;;;;;;;;;;;;;;;;;;2193210;67;2136;-27
2023/11/10 06:08:22;;;;;;;;;;;;;;;;;;2191757;67;2000;-27
2023/11/10 06:10:56;;;;;;;;;;;;;;;;;;2193374;67;1549;-27
2023/11/10 06:13:26;;;;;;;;;;;;;;;;;;2191770;67;1757;-27
2023/11/10 06:15:59;;;;;;;;;;;;;;;;;;2196455;59;3700;-25
2023/11/10 06:18:30;;;;;;;;;;;;;;;;;;2195380;59;3040;-26
2023/11/10 06:21:00;;;;;;;;;;;;;;;;;;2195172;59;2477;-26
2023/11/10 06:23:31;;;;;;;;;;;;;;;;;;2195712;67;2562;-25
2023/11/10 06:26:01;;;;;;;;;;;;;;;;;;2196112;59;3089;-25
2023/11/10 06:28:31;;;;;;;;;;;;;;;;;;2197518;67;2750;-25
2023/11/10 06:31:03;;;;;;;;;;;;;;;;;;2194673;59;2556;-26
2023/11/10 06:33:34;;;;;;;;;;;;;;;;;;2196470;59;2465;-26
2023/11/10 06:36:04;;;;;;;;;;;;;;;;;;2194905;67;2827;-26
2023/11/10 06:38:36;;;;;;;;;;;;;;;;;;2197014;59;2391;-26
2023/11/10 06:41:07;;;;;;;;;;;;;;;;;;2195292;59;3002;-26
2023/11/10 06:43:41;;;;;;;;;;;;;;;;;;2197931;59;2547;-26
2023/11/10 06:46:17;;;;;;;;;;;;;;;;;;2195724;67;2384;-26
2023/11/10 06:48:51;;;;;;;;;;;;;;;;;;2196353;67;2423;-26
2023/11/10 06:51:22;;;;;;;;;;;;;;;;;;2192500;59;2330;-26
2023/11/10 06:53:52;;;;;;;;;;;;;;;;;;2195398;67;2809;-26
2023/11/10 06:56:23;;;;;;;;;;;;;;;;;;2196955;67;2605;-26
2023/11/10 06:58:53;;;;;;;;;;;;;;;;;;2194964;67;2079;-27
2023/11/10 07:01:23;;;;;;;;;;;;;;;;;;2194872;67;2682;-26
2023/11/10 07:03:54;;;;;;;;;;;;;;;;;;2194737;59;2492;-26
2023/11/10 07:06:24;;;;;;;;;;;;;;;;;;2195796;67;2329;-26
2023/11/10 07:08:55;;;;;;;;;;;;;;;;;;2194759;67;2681;-26
2023/11/10 07:11:26;;;;;;;;;;;;;;;;;;2196174;67;2547;-25
2023/11/10 07:13:56;;;;;;;;;;;;;;;;;;2195374;59;3466;-25
2023/11/10 07:16:27;;;;;;;;;;;;;;;;;;2195755;59;2523;-25
2023/11/10 07:18:58;;;;;;;;;;;;;;;;;;2195222;67;2806;-25
2023/11/10 07:21:29;;;;;;;;;;;;;;;;;;2196817;67;3455;-25
2023/11/10 07:23:59;;;;;;;;;;;;;;;;;;2195511;67;2339;-25
2023/11/10 07:26:30;;;;;;;;;;;;;;;;;;2196503;59;2206;-25
2023/11/10 07:29:03;;;;;;;;;;;;;;;;;;2195264;59;2833;-25
2023/11/10 07:31:33;;;;;;;;;;;;;;;;;;2196160;59;2861;-25
2023/11/10 07:34:04;;;;;;;;;;;;;;;;;;2193311;67;2497;-25
2023/11/10 07:36:34;;;;;;;;;;;;;;;;;;2196504;67;2597;-25
2023/11/10 07:39:04;;;;;;;;;;;;;;;;;;2195473;59;3386;-25
2023/11/10 07:41:34;;;;;;;;;;;;;;;;;;2195206;59;2478;-25
2023/11/10 07:44:05;;;;;;;;;;;;;;;;;;2194008;59;2805;-24
2023/11/10 07:46:35;;;;;;;;;;;;;;;;;;2195232;59;2366;-24
2023/11/10 07:49:05;;;;;;;;;;;;;;;;;;2195218;67;2677;-24
2023/11/10 07:51:36;;;;;;;;;;;;;;;;;;2195571;59;2662;-25
2023/11/10 07:54:06;;;;;;;;;;;;;;;;;;2194405;59;2574;-24
2023/11/10 07:56:36;;;;;;;;;;;;;;;;;;2195918;66;2684;-25
2023/11/10 07:59:08;;;;;;;;;;;;;;;;;;2193182;59;2941;-24
2023/11/10 08:01:41;;;;;;;;;;;;;;;;;;2194022;60;2535;-24
2023/11/10 08:04:11;;;;;;;;;;;;;;;;;;2193061;59;2917;-25
2023/11/10 08:06:42;;;;;;;;;;;;;;;;;;2195888;67;2627;-24
2023/11/10 08:09:15;;;;;;;;;;;;;;;;;;2194748;67;2396;-24
2023/11/10 08:11:45;;;;;;;;;;;;;;;;;;2195983;67;2696;-24
2023/11/10 08:14:15;;;;;;;;;;;;;;;;;;2194598;67;2530;-24
2023/11/10 08:16:45;;;;;;;;;;;;;;;;;;2195745;59;2667;-25
2023/11/10 08:19:17;;;;;;;;;;;;;;;;;;2194566;67;3653;-24
2023/11/10 08:21:47;;;;;;;;;;;;;;;;;;2195833;59;2286;-24
2023/11/10 08:24:18;;;;;;;;;;;;;;;;;;2194068;67;2378;-24
2023/11/10 08:26:49;;;;;;;;;;;;;;;;;;2194345;59;2210;-24
2023/11/10 08:29:20;;;;;;;;;;;;;;;;;;2194952;59;3376;-24
2023/11/10 08:31:52;;;;;;;;;;;;;;;;;;2195347;59;3913;-24
2023/11/10 08:34:22;;;;;;;;;;;;;;;;;;2193658;67;3540;-24
2023/11/10 08:36:52;;;;;;;;;;;;;;;;;;2194712;67;2878;-24
2023/11/10 08:39:23;;;;;;;;;;;;;;;;;;2192475;67;4340;-24
2023/11/10 08:41:53;;;;;;;;;;;;;;;;;;2195034;59;1746;-24
2023/11/10 08:44:23;;;;;;;;;;;;;;;;;;2194018;67;2610;-24
2023/11/10 08:46:54;;;;;;;;;;;;;;;;;;2192382;67;2356;-24
2023/11/10 08:49:24;;;;;;;;;;;;;;;;;;2191496;67;2307;-24
2023/11/10 08:51:54;;;;;;;;;;;;;;;;;;2196235;67;1830;-24
2023/11/10 08:54:24;;;;;;;;;;;;;;;;;;2194789;59;2718;-24
2023/11/10 08:56:55;;;;;;;;;;;;;;;;;;2195227;67;2840;-24
2023/11/10 08:59:25;;;;;;;;;;;;;;;;;;2195178;67;2554;-24
2023/11/10 09:01:56;;;;;;;;;;;;;;;;;;2195250;59;2482;-24
2023/11/10 09:04:27;;;;;;;;;;;;;;;;;;2194300;67;3471;-24
2023/11/10 09:06:57;;;;;;;;;;;;;;;;;;2195291;59;2628;-24
2023/11/10 09:09:28;;;;;;;;;;;;;;;;;;2194200;59;2970;-24
2023/11/10 09:11:58;;;;;;;;;;;;;;;;;;2194533;67;2446;-24
2023/11/10 09:14:28;;;;;;;;;;;;;;;;;;2193198;59;2659;-24
2023/11/10 09:16:58;;;;;;;;;;;;;;;;;;2195230;59;2019;-24
2023/11/10 09:19:28;;;;;;;;;;;;;;;;;;2193294;67;2402;-24
2023/11/10 09:21:59;;;;;;;;;;;;;;;;;;2195619;60;2411;-24
2023/11/10 09:24:29;;;;;;;;;;;;;;;;;;2194447;67;1864;-24
2023/11/10 09:27:00;;;;;;;;;;;;;;;;;;2200063;67;2439;-24
2023/11/10 09:29:30;;;;;;;;;;;;;;;;;;2201419;59;2598;-24
2023/11/10 09:32:00;;;;;;;;;;;;;;;;;;2197775;59;3767;-24
2023/11/10 09:34:30;;;;;;;;;;;;;;;;;;2194788;59;2838;-24
2023/11/10 09:37:00;;;;;;;;;;;;;;;;;;2195588;59;2621;-24
2023/11/10 09:39:31;;;;;;;;;;;;;;;;;;2194967;59;2711;-24
2023/11/10 09:42:07;;;;;;;;;;;;;;;;;;2195890;59;2350;-24
2023/11/10 09:44:45;;;;;;;;;;;;;;;;;;2195479;67;2189;-24
2023/11/10 09:47:16;;;;;;;;;;;;;;;;;;2194739;59;3745;-24
2023/11/10 09:49:46;;;;;;;;;;;;;;;;;;2194939;59;2829;-24
2023/11/10 09:52:19;;;;;;;;;;;;;;;;;;2192179;59;2822;-24
2023/11/10 09:54:51;;;;;;;;;;;;;;;;;;2195483;67;1878;-24
2023/11/10 09:57:22;;;;;;;;;;;;;;;;;;2193992;67;2442;-24
2023/11/10 09:59:52;;;;;;;;;;;;;;;;;;2196316;67;2196;-24
2023/11/10 10:02:23;;;;;;;;;;;;;;;;;;2194119;59;2666;-24
2023/11/10 10:04:53;;;;;;;;;;;;;;;;;;2194710;59;2496;-24
2023/11/10 10:07:23;;;;;;;;;;;;;;;;;;2195363;62;2761;-24
2023/11/10 10:09:54;;;;;;;;;;;;;;;;;;2196209;67;2512;-24
2023/11/10 10:12:25;;;;;;;;;;;;;;;;;;2194985;67;2682;-24
2023/11/10 10:14:55;;;;;;;;;;;;;;;;;;2196274;67;2223;-24
2023/11/10 10:17:29;;;;;;;;;;;;;;;;;;2194598;59;3543;-24
2023/11/10 10:20:05;;;;;;;;;;;;;;;;;;2195729;67;3830;-24
2023/11/10 10:22:42;;;;;;;;;;;;;;;;;;2196299;67;3540;-24
2023/11/10 10:25:21;;;;;;;;;;;;;;;;;;2193061;59;3834;-24
2023/11/10 10:27:51;;;;;;;;;;;;;;;;;;2195247;59;2110;-24
2023/11/10 10:30:23;;;;;;;;;;;;;;;;;;2193712;59;2564;-24
2023/11/10 10:32:54;;;;;;;;;;;;;;;;;;2195010;59;3716;-24
2023/11/10 10:35:25;;;;;;;;;;;;;;;;;;2194168;59;2994;-24
2023/11/10 10:38:01;;;;;;;;;;;;;;;;;;2195421;67;3641;-24
2023/11/10 10:40:35;;;;;;;;;;;;;;;;;;2192840;59;3534;-24
2023/11/10 10:43:06;;;;;;;;;;;;;;;;;;2194974;67;2464;-24
2023/11/10 10:45:37;;;;;;;;;;;;;;;;;;2195644;59;2294;-24
2023/11/10 10:48:08;;;;;;;;;;;;;;;;;;2195318;67;3303;-24
2023/11/10 10:50:40;;;;;;;;;;;;;;;;;;2195821;67;2490;-24
2023/11/10 10:53:12;;;;;;;;;;;;;;;;;;2195809;59;3386;-24
2023/11/10 10:55:50;;;;;;;;;;;;;;;;;;2194713;59;4081;-24
2023/11/10 10:58:22;;;;;;;;;;;;;;;;;;2194626;67;4057;-24
2023/11/10 11:00:52;;;;;;;;;;;;;;;;;;2195978;67;2426;-24
2023/11/10 11:03:41;;;;;;;;;;;;;;;;;;2193855;59;3881;-24
2023/11/10 11:06:30;;;;;;;;;;;;;;;;;;2194194;59;3353;-24
2023/11/10 11:09:19;;;;;;;;;;;;;;;;;;2196198;67;1975;-24
2023/11/10 11:12:05;;;;;;;;;;;;;;;;;;2196001;67;3637;-24
2023/11/10 11:14:56;;;;;;;;;;;;;;;;;;2194479;67;2368;-23
2023/11/10 11:17:26;;;;;;;;;;;;;;;;;;2193658;59;2777;-24
2023/11/10 11:19:57;;;;;;;;;;;;;;;;;;2195425;67;2809;-23
2023/11/10 11:22:27;;;;;;;;;;;;;;;;;;2195137;67;3788;-24
2023/11/10 11:25:10;;;;;;;;;;;;;;;;;;2195920;67;2549;-23
2023/11/10 11:27:41;;;;;;;;;;;;;;;;;;2194903;59;3833;-23
2023/11/10 11:30:11;;;;;;;;;;;;;;;;;;2195086;59;2500;-24
2023/11/10 11:32:42;;;;;;;;;;;;;;;;;;2195668;59;3686;-23
2023/11/10 11:35:16;;;;;;;;;;;;;;;;;;2193557;67;2805;-23
2023/11/10 11:37:46;;;;;;;;;;;;;;;;;;2195311;67;3202;-23
2023/11/10 11:40:17;;;;;;;;;;;;;;;;;;2194977;59;3549;-23
2023/11/10 11:42:48;;;;;;;;;;;;;;;;;;2195848;67;3469;-23
2023/11/10 11:45:19;;;;;;;;;;;;;;;;;;2193577;59;2350;-23
2023/11/10 11:47:49;;;;;;;;;;;;;;;;;;2195387;67;2000;-23
2023/11/10 11:50:19;;;;;;;;;;;;;;;;;;2194299;67;1804;-23
2023/11/10 11:52:49;;;;;;;;;;;;;;;;;;2196240;67;2433;-23
2023/11/10 11:55:21;;;;;;;;;;;;;;;;;;2194695;59;2450;-23
2023/11/10 11:57:51;;;;;;;;;;;;;;;;;;2196176;62;2654;-23
2023/11/10 12:00:22;;;;;;;;;;;;;;;;;;2194253;59;2556;-23
2023/11/10 12:02:55;;;;;;;;;;;;;;;;;;2191050;59;2831;-23
2023/11/10 12:05:26;;;;;;;;;;;;;;;;;;2193876;59;3560;-23
2023/11/10 12:07:56;;;;;;;;;;;;;;;;;;2195936;67;2341;-23
2023/11/10 12:10:26;;;;;;;;;;;;;;;;;;2193449;67;4330;-23
2023/11/10 12:12:57;;;;;;;;;;;;;;;;;;2195007;67;2054;-23
2023/11/10 12:15:28;;;;;;;;;;;;;;;;;;2192356;59;3466;-23
2023/11/10 12:17:59;;;;;;;;;;;;;;;;;;2201805;54;2495;-20
2023/11/10 12:20:30;;;;;;;;;;;;;;;;;;2194335;59;2845;-20
2023/11/10 12:23:01;;;;;;;;;;;;;;;;;;2194814;59;2151;-20
2023/11/10 12:25:35;;;;;;;;;;;;;;;;;;2197027;59;2524;-20
2023/11/10 12:28:12;;;;;;;;;;;;;;;;;;2198636;59;2149;-20
2023/11/10 12:30:42;;;;;;;;;;;;;;;;;;2198210;59;2324;-20
2023/11/10 12:33:12;;;;;;;;;;;;;;;;;;2198091;59;2500;-20
2023/11/10 12:35:44;;;;;;;;;;;;;;;;;;2197823;59;1885;-20
2023/11/10 12:38:15;;;;;;;;;;;;;;;;;;2196778;59;3678;-20
2023/11/10 12:40:48;;;;;;;;;;;;;;;;;;2198286;59;2986;-20
2023/11/10 12:43:22;;;;;;;;;;;;;;;;;;2196383;59;2580;-20
2023/11/10 12:45:52;;;;;;;;;;;;;;;;;;2198863;59;3475;-20
2023/11/10 12:48:24;;;;;;;;;;;;;;;;;;2197259;59;2522;-20
2023/11/10 12:50:55;;;;;;;;;;;;;;;;;;2198119;67;1797;-20
2023/11/10 12:53:26;;;;;;;;;;;;;;;;;;2197248;59;2622;-20
2023/11/10 12:55:56;;;;;;;;;;;;;;;;;;2196444;59;3401;-20
2023/11/10 12:58:27;;;;;;;;;;;;;;;;;;2197972;67;3352;-20
2023/11/10 13:00:57;;;;;;;;;;;;;;;;;;2198897;59;2499;-20
2023/11/10 13:03:27;;;;;;;;;;;;;;;;;;2197243;59;3361;-20
2023/11/10 13:05:59;;;;;;;;;;;;;;;;;;2194861;59;2825;-20
2023/11/10 13:08:29;;;;;;;;;;;;;;;;;;2193776;59;3772;-20
2023/11/10 13:10:59;;;;;;;;;;;;;;;;;;2195374;59;2650;-20
2023/11/10 13:13:30;;;;;;;;;;;;;;;;;;2193676;67;2668;-20
2023/11/10 13:16:00;;;;;;;;;;;;;;;;;;2194866;59;2150;-20
2023/11/10 13:18:30;;;;;;;;;;;;;;;;;;2193903;59;2555;-20
2023/11/10 13:21:02;;;;;;;;;;;;;;;;;;2197636;67;2454;-20
2023/11/10 13:23:34;;;;;;;;;;;;;;;;;;2197798;59;3641;-20
2023/11/10 13:26:05;;;;;;;;;;;;;;;;;;2198473;67;1758;-20
2023/11/10 13:28:35;;;;;;;;;;;;;;;;;;2196760;59;2312;-20
2023/11/10 13:31:07;;;;;;;;;;;;;;;;;;2198998;59;3511;-20
2023/11/10 13:33:40;;;;;;;;;;;;;;;;;;2197974;59;2691;-20
2023/11/10 13:36:12;;;;;;;;;;;;;;;;;;2196866;67;2557;-20
2023/11/10 13:38:42;;;;;;;;;;;;;;;;;;2197713;59;3217;-20
2023/11/10 13:41:13;;;;;;;;;;;;;;;;;;2200383;59;3569;-20
2023/11/10 13:43:43;;;;;;;;;;;;;;;;;;2198742;59;3942;-20
2023/11/10 13:46:13;;;;;;;;;;;;;;;;;;2198977;67;2400;-20
2023/11/10 13:48:45;;;;;;;;;;;;;;;;;;2198082;59;2949;-20
2023/11/10 13:51:16;;;;;;;;;;;;;;;;;;2200875;67;2230;-20
2023/11/10 13:53:46;;;;;;;;;;;;;;;;;;2200673;59;2459;-20
2023/11/10 13:56:16;;;;;;;;;;;;;;;;;;2198216;59;3563;-20
2023/11/10 13:58:47;;;;;;;;;;;;;;;;;;2199771;67;2457;-19
2023/11/10 14:01:18;;;;;;;;;;;;;;;;;;2197968;67;2040;-20
2023/11/10 14:03:48;;;;;;;;;;;;;;;;;;2198443;59;2552;-20
2023/11/10 14:06:18;;;;;;;;;;;;;;;;;;2198411;59;2545;-20
2023/11/10 14:08:49;;;;;;;;;;;;;;;;;;2199557;67;2487;-20
2023/11/10 14:11:19;;;;;;;;;;;;;;;;;;2197944;59;2405;-20
2023/11/10 14:13:49;;;;;;;;;;;;;;;;;;2198440;59;2383;-20
2023/11/10 14:16:20;;;;;;;;;;;;;;;;;;2195697;59;2308;-20
2023/11/10 14:18:50;;;;;;;;;;;;;;;;;;2199152;59;3233;-20
2023/11/10 14:21:22;;;;;;;;;;;;;;;;;;2198213;59;3230;-20
2023/11/10 14:23:53;;;;;;;;;;;;;;;;;;2199862;59;2381;-20
2023/11/10 14:26:26;;;;;;;;;;;;;;;;;;2198264;67;2673;-20
2023/11/10 14:28:56;;;;;;;;;;;;;;;;;;2199325;67;2261;-20
2023/11/10 14:31:28;;;;;;;;;;;;;;;;;;2198908;59;2962;-20
2023/11/10 14:34:00;;;;;;;;;;;;;;;;;;2199700;59;2327;-20
2023/11/10 14:36:30;;;;;;;;;;;;;;;;;;2198520;59;2679;-20
2023/11/10 14:39:01;;;;;;;;;;;;;;;;;;2196485;59;2545;-20
2023/11/10 14:41:33;;;;;;;;;;;;;;;;;;2198719;59;3742;-20
2023/11/10 14:44:04;;;;;;;;;;;;;;;;;;2199448;59;2089;-21
2023/11/10 14:46:36;;;;;;;;;;;;;;;;;;2197600;59;3265;-22
2023/11/10 14:49:09;;;;;;;;;;;;;;;;;;2199342;59;2337;-21
2023/11/10 14:51:45;;;;;;;;;;;;;;;;;;2197887;59;3051;-21
2023/11/10 14:54:17;;;;;;;;;;;;;;;;;;2200655;59;3554;-21
2023/11/10 14:56:47;;;;;;;;;;;;;;;;;;2199670;59;2385;-21
2023/11/10 14:59:18;;;;;;;;;;;;;;;;;;2199329;59;2438;-21
2023/11/10 15:01:51;;;;;;;;;;;;;;;;;;2196352;59;2483;-21
2023/11/10 15:04:22;;;;;;;;;;;;;;;;;;2198882;59;2484;-21
2023/11/10 15:06:53;;;;;;;;;;;;;;;;;;2199185;59;2640;-21
2023/11/10 15:09:23;;;;;;;;;;;;;;;;;;2198963;59;3136;-21
2023/11/10 15:11:55;;;;;;;;;;;;;;;;;;2200143;59;2317;-21
2023/11/10 15:14:25;;;;;;;;;;;;;;;;;;2198816;59;2588;-21
2023/11/10 15:16:55;;;;;;;;;;;;;;;;;;2200692;59;2427;-21
2023/11/10 15:19:26;;;;;;;;;;;;;;;;;;2198610;67;2134;-22
2023/11/10 15:21:56;;;;;;;;;;;;;;;;;;2200791;67;1206;-22
2023/11/10 15:24:26;;;;;;;;;;;;;;;;;;2197790;59;1282;-22
2023/11/10 15:26:57;;;;;;;;;;;;;;;;;;2199089;59;1803;-21
2023/11/10 15:29:27;;;;;;;;;;;;;;;;;;2198327;59;2581;-21
2023/11/10 15:32:04;;;;;;;;;;;;;;;;;;2199799;67;1622;-22
2023/11/10 15:34:35;;;;;;;;;;;;;;;;;;2198459;67;1598;-21
2023/11/10 15:37:05;;;;;;;;;;;;;;;;;;2198825;67;1761;-20
2023/11/10 15:39:38;;;;;;;;;;;;;;;;;;2197167;59;1716;-20
2023/11/10 15:42:11;;;;;;;;;;;;;;;;;;2199361;59;1737;-20
2023/11/10 15:44:45;;;;;;;;;;;;;;;;;;2197149;67;1691;-20
2023/11/10 15:47:16;;;;;;;;;;;;;;;;;;2199196;67;1628;-20
2023/11/10 15:49:46;;;;;;;;;;;;;;;;;;2198333;67;1957;-19
2023/11/10 15:52:16;;;;;;;;;;;;;;;;;;2200110;67;1359;-20
2023/11/10 15:54:47;;;;;;;;;;;;;;;;;;2198481;67;1550;-19
2023/11/10 15:57:17;;;;;;;;;;;;;;;;;;2199859;67;1441;-20
2023/11/10 15:59:48;;;;;;;;;;;;;;;;;;2199458;59;2201;-19
2023/11/10 16:02:21;;;;;;;;;;;;;;;;;;2199630;59;2340;-20
2023/11/10 16:04:52;;;;;;;;;;;;;;;;;;2198033;59;2155;-20
2023/11/10 16:07:22;;;;;;;;;;;;;;;;;;2199160;67;1683;-19
2023/11/10 16:09:52;;;;;;;;;;;;;;;;;;2199041;67;1983;-19
2023/11/10 16:12:25;;;;;;;;;;;;;;;;;;2198859;67;1624;-20
2023/11/10 16:14:55;;;;;;;;;;;;;;;;;;2199396;67;1256;-19
2023/11/10 16:17:25;;;;;;;;;;;;;;;;;;2197669;59;2453;-19
2023/11/10 16:19:56;;;;;;;;;;;;;;;;;;2199567;67;1647;-20
2023/11/10 16:22:27;;;;;;;;;;;;;;;;;;2198465;67;1215;-19
2023/11/10 16:24:57;;;;;;;;;;;;;;;;;;2198139;59;2408;-20
2023/11/10 16:27:27;;;;;;;;;;;;;;;;;;2198120;59;1564;-19
2023/11/10 16:29:57;;;;;;;;;;;;;;;;;;2200290;59;2316;-20
2023/11/10 16:32:32;;;;;;;;;;;;;;;;;;2198984;67;1790;-20
2023/11/10 16:35:05;;;;;;;;;;;;;;;;;;2199089;59;2088;-19
2023/11/10 16:37:37;;;;;;;;;;;;;;;;;;2198116;67;1315;-20
2023/11/10 16:40:10;;;;;;;;;;;;;;;;;;2199399;59;1669;-19
2023/11/10 16:42:41;;;;;;;;;;;;;;;;;;2197854;59;1713;-19
2023/11/10 16:45:11;;;;;;;;;;;;;;;;;;2198825;59;2313;-20
2023/11/10 16:47:41;;;;;;;;;;;;;;;;;;2197716;67;2078;-19
2023/11/10 16:50:13;;;;;;;;;;;;;;;;;;2200171;67;1500;-20
2023/11/10 16:52:43;;;;;;;;;;;;;;;;;;2197223;67;1690;-19
2023/11/10 16:55:14;;;;;;;;;;;;;;;;;;2199357;67;1368;-19
2023/11/10 16:57:44;;;;;;;;;;;;;;;;;;2197264;67;1626;-20
2023/11/10 17:00:15;;;;;;;;;;;;;;;;;;2198794;59;1430;-20
2023/11/10 17:02:45;;;;;;;;;;;;;;;;;;2197280;59;2503;-19
2023/11/10 17:05:19;;;;;;;;;;;;;;;;;;2198636;67;1568;-19
2023/11/10 17:07:50;;;;;;;;;;;;;;;;;;2198348;67;1928;-19
2023/11/10 17:10:20;;;;;;;;;;;;;;;;;;2198734;67;2161;-19
2023/11/10 17:12:52;;;;;;;;;;;;;;;;;;2198074;59;1591;-19
2023/11/10 17:15:23;;;;;;;;;;;;;;;;;;2200039;67;1340;-19
2023/11/10 17:17:53;;;;;;;;;;;;;;;;;;2198227;59;1620;-19
2023/11/10 17:20:23;;;;;;;;;;;;;;;;;;2198211;67;1493;-19
2023/11/10 17:22:54;;;;;;;;;;;;;;;;;;2198344;67;1950;-19
2023/11/10 17:25:24;;;;;;;;;;;;;;;;;;2199546;67;1643;-19
2023/11/10 17:27:55;;;;;;;;;;;;;;;;;;2199200;67;2463;-19
2023/11/10 17:30:25;;;;;;;;;;;;;;;;;;2198961;59;2331;-19